x

Pt Arena - 19nm North Of Point Arena, Ca (46014) Wave Buoy

12:40pm - Wed 10th Feb 2016 All times are PST. -8 hours from GMT.

  • Sig Wave height 5.2ft
  • Swell Direction
  • Average Period 8s
  • Wind
    4mph
  • Sea Temp 56°f
  • Air Temp 56°f
  • Sea Pressure 1025.2mb
  • Pt Arena - 19nm North Of Point Arena, Ca
  • Pt Arena - 19nm North Of Point Arena, Ca

More Historic Weather Station data

Upgrade to MSW Pro to gain access to the past 30 days of data for over 8000 Wavebouys and Weather Stations around the globe.

Join Pro

Comparision Forecast

View Surf forecast
   
Wed 02/10 12:40pm 5ft  -  8s 4
mph
1025.2mb 56f 56f
12:30pm  -   -   -  4 7 mph 1025.5mb 56f 56f
12:20pm  -   -   -  4 7 mph 1025.5mb 56f 56f
12:10pm  -   -   -  4 7 mph 1025.5mb 56f 56f
12:00pm  -   -   -  4 7 mph 1025.8mb 56f 56f
11:50am 6ft 11s 9s 4 7 mph 1026mb 56f 56f
11:40am  -   -   -  4 9 mph 1025.8mb 56f 56f
11:30am  -   -   -  7 9 mph 1025.8mb 56f 56f
11:20am  -   -   -  7 9 mph 1026mb 56f 56f
11:10am  -   -   -  7 9 mph 1026mb 56f 56f
11:00am  -   -   -  7 9 mph 1026.2mb 56f 55f
10:50am 5ft 13s 9s 7 11 mph 1026.2mb 56f 55f
10:40am  -   -   -  7 11 mph 1026.3mb 56f 55f
10:30am  -   -   -  9 11 mph 1026.3mb 56f 55f
10:20am  -   -   -  9 11 mph 1026.3mb 56f 55f
10:10am  -   -   -  9 11 mph 1026.3mb 56f 55f
10:00am  -   -   -  9 11 mph 1026.3mb 56f 55f
9:50am 5ft 12s 9s 7 9 mph 1026.5mb 56f 55f
9:40am  -   -   -  4 7 mph 1026.8mb 56f 55f
9:30am  -   -   -  4
mph
1026.8mb 56f 55f
9:20am  -   -   -  4 7 mph 1026.5mb 56f 55f
9:10am  -   -   -  4 7 mph 1026.5mb 56f 55f
9:00am  -   -   -  4 7 mph 1026.5mb 56f 54f
8:50am 5ft 11s 9s 7 9 mph 1026.3mb 56f 55f
8:40am  -   -   -  7 9 mph 1026mb 56f 55f
8:30am  -   -   -  7 9 mph 1025.8mb 56f 55f
8:20am  -   -   -  4 7 mph 1025.5mb 56f 55f
8:10am  -   -   -  4 7 mph 1025.7mb 56f 55f
8:00am  -   -   -  4 7 mph 1025.5mb 56f 55f
7:50am 4.5ft 12s 8s 4 7 mph 1025.3mb 56f 55f
7:40am  -   -   -  7 9 mph 1025.2mb 56f 55f
7:30am  -   -   -  7 9 mph 1025.2mb 56f 55f
7:20am  -   -   -  4 7 mph 1025.2mb 56f 55f
7:10am  -   -   -  2 4 mph 1025mb 56f 55f
7:00am  -   -   -  2
mph
1024.8mb 56f 55f
6:50am 5ft 14s 9s 2 4 mph 1024.7mb 56f 55f
6:40am  -   -   -  4 7 mph 1024.5mb 56f 55f
6:30am  -   -   -  4 9 mph 1024.5mb 56f 55f
6:20am  -   -   -  7 9 mph 1024.5mb 56f 55f
6:10am  -   -   -  7 11 mph 1024.3mb 56f 55f
6:00am  -   -   -  9 11 mph 1024.2mb 56f 55f
5:50am 5ft 12s 8s 9 11 mph 1024mb 56f 55f
5:40am  -   -   -  9 11 mph 1024mb 56f 55f
5:30am  -   -   -  9 11 mph 1024.3mb 56f 55f
5:20am  -   -   -  7 11 mph 1024.3mb 56f 55f
5:10am  -   -   -  7 11 mph 1024.3mb 56f 55f
5:00am  -   -   -  7 11 mph 1024.2mb 56f 54f
4:50am 5ft 13s 9s 7 9 mph 1024.2mb 56f 55f
4:40am  -   -   -  2 4 mph 1024.5mb 56f 55f
4:30am  -   -   -  4 7 mph 1024.3mb 56f 55f
4:20am  -   -   -  4 7 mph 1024.3mb 56f 55f
4:10am  -   -   -  7 9 mph 1024mb 56f 55f
4:00am  -   -   -  7 9 mph 1024mb 56f 55f
3:50am 5ft 13s 9s 7 9 mph 1024mb 56f 55f
3:40am  -   -   -  7 9 mph 1024mb 56f 55f
3:30am  -   -   -  7 11 mph 1024mb 56f 55f
3:20am  -   -   -  7 9 mph 1024mb 56f 55f
3:10am  -   -   -  4 7 mph 1024mb 56f 55f
3:00am  -   -   -  4 7 mph 1024.3mb 56f 55f
2:50am 5ft 12s 9s 4 7 mph 1024.3mb 56f 55f
2:40am  -   -   -  4 7 mph 1024.5mb 56f 55f
2:30am  -   -   -  7 9 mph 1024.3mb 56f 55f
2:20am  -   -   -  7 9 mph 1024mb 56f 55f
2:10am  -   -   -  9 11 mph 1023.6mb 56f 55f
2:00am  -   -   -  9 13 mph 1023.5mb 56f 55f
1:50am 5ft 14s 9s 9 11 mph 1023.5mb 56f 55f
1:40am  -   -   -  4 9 mph 1023.4mb 56f 55f
1:30am  -   -   -   -  2 mph 1023.4mb 56f 55f
1:20am  -   -   -  2 7 mph 1023.3mb 56f 55f
1:10am  -   -   -  7 11 mph 1023.3mb 56f 55f
1:00am  -   -   -  9 11 mph 1023.4mb 56f 55f
12:50am 4.5ft 13s 9s 11 16 mph 1023.3mb 56f 56f
12:40am  -   -   -  11 16 mph 1023.3mb 56f 56f
12:30am  -   -   -  9 13 mph 1023.1mb 56f 56f
12:20am  -   -   -  11 13 mph 1023mb 56f 57f
12:10am  -   -   -  9 11 mph 1023.1mb 56f 56f
12:00am  -   -   -  9 11 mph 1022.9mb 56f 56f
Tue 02/09 11:50pm 5.5ft 14s 9s 9 13 mph 1023mb 56f 57f
11:40pm  -   -   -  9 13 mph 1023mb 56f 57f
11:30pm  -   -   -  7 11 mph 1023mb 56f 56f
11:20pm  -   -   -  7 9 mph 1022.5mb 56f 57f
11:10pm  -   -   -  4 7 mph 1022.3mb 56f 57f
11:00pm  -   -   -  4 7 mph 1022mb 56f 57f
10:50pm 5.5ft 13s 10s 4 7 mph 1022mb 56f 57f
10:40pm  -   -   -  7 11 mph 1021.8mb 56f 57f
10:30pm  -   -   -  7 9 mph 1021.8mb 56f 57f
10:20pm  -   -   -  9 11 mph 1021.4mb 55f 57f
10:10pm  -   -   -  9 11 mph 1021.3mb 55f 57f
10:00pm  -   -   -  7 9 mph 1021.3mb 55f 57f
9:50pm 5.5ft 13s 9s 4 7 mph 1021.5mb 56f 57f
9:40pm  -   -   -  4 9 mph 1021.5mb 56f 57f
9:30pm  -   -   -  7 9 mph 1021.1mb 55f 57f
9:20pm  -   -   -  7 9 mph 1021mb 55f 56f
9:10pm  -   -   -  7 9 mph 1020.8mb 55f 56f
9:00pm  -   -   -  4 9 mph 1020.9mb 56f 56f
8:50pm 5.5ft 12s 9s 2 7 mph 1020.9mb - 56f
8:40pm  -   -   -  4 7 mph 1020.9mb 56f 56f
8:30pm  -   -   -  2 4 mph 1020.8mb 56f 56f
8:20pm  -   -   -  2 4 mph 1020.9mb 56f 56f
8:10pm  -   -   -  4
mph
1020.6mb 56f 56f
8:00pm  -   -   -  4 7 mph 1020.6mb 56f 56f
7:50pm 6ft 13s 10s 2 4 mph 1020.6mb 56f 56f
7:40pm  -   -   -  2 4 mph 1021mb 56f 56f
7:30pm  -   -   -  4 7 mph 1021mb 56f 56f
7:20pm  -   -   -  2 7 mph 1021mb 56f 56f
7:10pm  -   -   -   -  2 mph 1021mb 56f 56f
7:00pm  -   -   -  2 4 mph 1020.6mb 56f 56f
6:50pm 6.5ft 13s 10s 2 7 mph 1020.5mb 56f 57f
6:40pm  -   -   -  2 7 mph 1020.8mb 56f 57f
6:30pm  -   -   -  4 7 mph 1020.8mb 56f 57f
6:20pm  -   -   -  4 7 mph 1021mb 56f 58f
6:10pm  -   -   -  2 7 mph 1021mb 56f 57f
6:00pm  -   -   -  2 4 mph 1021.4mb 56f 56f
5:50pm 7.5ft 13s 10s 2 4 mph 1021.4mb 56f 56f
5:40pm  -   -   -  2 4 mph 1021.5mb 56f 57f
5:30pm  -   -   -  4 7 mph 1021.6mb 56f 57f
5:20pm  -   -   -  4 7 mph 1021.8mb 56f 57f
5:10pm  -   -   -  4
mph
1021.8mb 56f 57f
5:00pm  -   -   -  2 4 mph 1021.6mb 56f 58f
4:50pm 6ft 13s 9s 2 4 mph 1021.8mb 56f 58f
4:40pm  -   -   -  4 7 mph 1021.8mb 56f 57f
4:30pm  -   -   -  4 7 mph 1021.5mb 56f 57f
4:20pm  -   -   -  4 7 mph 1021.5mb 56f 57f
4:10pm  -   -   -  4 9 mph 1021.9mb 56f 57f
4:00pm  -   -   -  4 9 mph 1021.9mb 56f 57f
3:50pm 5.5ft 13s 8s 4 9 mph 1021.8mb 56f 57f
3:40pm  -   -   -  4 9 mph 1021.9mb 56f 58f
3:30pm  -   -   -  4 9 mph 1022mb 56f 58f
3:20pm  -   -   -  4 11 mph 1022mb 55f 58f
3:10pm  -   -   -  4 11 mph 1022.3mb 55f 59f
3:00pm  -   -   -  7 9 mph 1022.4mb 56f 58f
2:50pm 6ft 14s 8s 4 7 mph 1022.5mb 56f 58f
2:40pm  -   -   -  4 7 mph 1022.5mb 55f 58f
2:30pm  -   -   -  2 9 mph 1022.4mb 55f 58f
2:20pm  -   -   -  7 13 mph 1022.3mb 55f 58f
2:10pm  -   -   -  11 13 mph 1022.4mb 55f 58f
2:00pm  -   -   -  11 16 mph 1022mb 55f 58f
1:50pm 6ft 14s 8s 16 20 mph 1022.1mb 55f 59f
1:40pm  -   -   -  16 20 mph 1022.1mb 55f 58f
1:30pm  -   -   -  16 18 mph 1022mb 55f 59f
1:20pm  -   -   -  16 18 mph 1022mb 55f 59f
1:10pm  -   -   -  13 18 mph 1022mb 56f 58f
1:00pm  -   -   -  13 18 mph 1022mb 56f 58f
12:50pm 6ft 14s 10s 11 18 mph 1022mb 56f 58f
12:40pm  -   -   -  9 13 mph 1022.1mb 56f 58f
12:30pm  -   -   -  9 16 mph 1022.5mb 56f 58f
12:20pm  -   -   -  4 9 mph 1022mb 56f 59f
12:10pm  -   -   -  2 4 mph 1021.8mb 56f 59f
12:00pm  -   -   -   -  2 mph 1021.6mb 56f 59f
11:50am 7ft 14s 10s 4
mph
1021.8mb 56f 59f
11:40am  -   -   -  2 4 mph 1021.6mb 56f 59f
11:30am  -   -   -  2 4 mph 1021.5mb 56f 59f
11:20am  -   -   -  2 4 mph 1021.5mb 56f 59f
11:10am  -   -   -  2 4 mph 1021.4mb 56f 59f
11:00am  -   -   -  4 7 mph 1021.4mb 56f 59f
10:50am 6.5ft 14s 10s 4 7 mph 1021.3mb 56f 58f
10:40am  -   -   -  4
mph
1021.4mb 56f 58f
10:30am  -   -   -  4 7 mph 1021.3mb 56f 58f
10:20am  -   -   -  4 7 mph 1021.4mb - 58f
10:10am  -   -   -  7 9 mph 1021mb 56f 58f
10:00am  -   -   -  7 11 mph 1021mb 56f 58f
9:50am 6ft 15s 11s 9 11 mph 1021mb 56f 58f
9:40am  -   -   -  7 9 mph 1021.4mb 56f 58f
9:30am  -   -   -  7 9 mph 1021.5mb 55f 57f
9:20am  -   -   -  7 11 mph 1021.5mb 55f 57f
9:10am  -   -   -  7 9 mph 1021.5mb 56f 57f
9:00am  -   -   -  7 9 mph 1021.8mb 56f 57f
8:50am 6.5ft 15s 10s 7 11 mph 1021.8mb 56f 57f
8:40am  -   -   -  7 9 mph 1021.8mb 56f 57f
8:30am  -   -   -  4 9 mph 1021.9mb 56f 57f
8:20am  -   -   -  4 7 mph 1021.9mb 56f 57f
8:10am  -   -   -  4 7 mph 1022mb 56f 57f
8:00am  -   -   -  4 9 mph 1022mb 56f 57f
7:50am 7ft 15s 11s 7 9 mph 1022mb 56f 57f
7:40am  -   -   -  7 9 mph 1021.9mb 56f 56f
7:30am  -   -   -  7 9 mph 1021.9mb 56f 56f
7:20am  -   -   -  4 9 mph 1021.6mb 56f 56f
7:10am  -   -   -  4 7 mph 1021.6mb 56f 57f
7:00am  -   -   -  4 9 mph 1021.5mb 56f 57f
6:50am 7ft 14s 10s 4 9 mph 1021.5mb 56f 57f
6:40am  -   -   -  7 9 mph 1021.4mb 56f 56f
6:30am  -   -   -  7 9 mph 1021.3mb 56f 56f
6:20am  -   -   -  7 9 mph 1021.1mb 56f 56f
6:10am  -   -   -  7 11 mph 1021.1mb 56f 56f
6:00am  -   -   -  7 11 mph 1021.3mb 56f 56f
5:50am 8ft 15s 10s 7 9 mph 1021.3mb 56f 56f
5:40am  -   -   -  4 9 mph 1021.1mb 56f 56f
5:30am  -   -   -  7 9 mph 1021.1mb 56f 56f
5:20am  -   -   -  4 11 mph 1021mb 56f 56f
5:10am  -   -   -  4 7 mph 1021.1mb 56f 56f
5:00am  -   -   -  4 11 mph 1021mb 56f 56f
4:50am 7ft 15s 10s 4 9 mph 1020.9mb 56f 56f
4:40am  -   -   -  7 9 mph 1020.8mb 56f 57f
4:30am  -   -   -  4 9 mph 1020.8mb 56f 57f
4:20am  -   -   -  4 9 mph 1020.6mb 56f 57f
4:10am  -   -   -  4 9 mph 1020.5mb 56f 57f
4:00am  -   -   -  4 7 mph 1020.6mb 56f 57f
3:50am 8.5ft 15s 11s 4 9 mph 1020.6mb 56f 57f
3:40am  -   -   -  2 7 mph 1020.8mb 56f 57f
3:30am  -   -   -  2 7 mph 1020.6mb 56f 57f
3:20am  -   -   -  4 9 mph 1020.8mb 56f 57f
3:10am  -   -   -  7 9 mph 1020.8mb 56f 57f
3:00am  -   -   -  4 9 mph 1020.9mb 56f 57f
2:50am 9ft 15s 11s 4 9 mph 1021mb 56f 57f
2:40am  -   -   -  4 9 mph 1021mb 56f 58f
2:30am  -   -   -  7 9 mph 1021mb 56f 58f
2:20am  -   -   -  7 11 mph 1021mb 56f 58f
2:10am  -   -   -  7 9 mph 1021mb 56f 58f
2:00am  -   -   -  7 9 mph 1021mb 56f 58f
1:50am 9.5ft 15s 11s 4 11 mph 1021mb 56f 58f
1:40am  -   -   -  4 9 mph 1021mb 56f 58f
1:30am  -   -   -  4 9 mph 1021.1mb 56f 58f
1:20am  -   -   -  7 11 mph 1021.1mb 56f 59f
1:10am  -   -   -  9 13 mph 1021.1mb 56f 58f
1:00am  -   -   -  7 13 mph 1021.1mb 56f 58f
12:50am 9ft 14s 11s 4 9 mph 1021.3mb 56f 57f
12:40am  -   -   -  2 7 mph 1021.4mb 56f 58f
12:30am  -   -   -  4 9 mph 1021.3mb 56f 58f
12:20am  -   -   -  4 9 mph 1021.3mb 56f 58f
12:10am  -   -   -  4 9 mph 1021.3mb 56f 58f
12:00am  -   -   -  4 9 mph 1021.3mb 56f 58f
Mon 02/08 11:50pm 9ft 15s 11s 7 11 mph 1021.3mb 56f 58f
11:40pm  -   -   -  7 11 mph 1021.3mb 56f 58f
11:30pm  -   -   -  7 11 mph 1021.3mb 56f 58f
11:20pm  -   -   -  4 9 mph 1021.4mb 56f 58f
11:10pm  -   -   -  4 9 mph 1021.4mb 56f 58f
11:00pm  -   -   -  7 9 mph 1021.4mb 56f 58f
10:50pm 8.5ft 14s 11s 7 9 mph 1021.4mb 56f 58f
10:40pm  -   -   -  4 9 mph 1021.3mb 56f 58f
10:30pm  -   -   -  4 9 mph 1021.3mb 56f 58f
10:20pm  -   -   -  4 9 mph 1021.3mb 56f 58f
10:10pm  -   -   -  4 7 mph 1021.1mb 56f 58f
10:00pm  -   -   -  4 9 mph 1021.3mb 56f 58f
9:50pm 9ft 15s 12s 4 9 mph 1021.3mb 57f 58f
9:40pm 9ft  -  12s 7 9 mph 1021.4mb 56f 58f
9:30pm  -   -   -  7 9 mph 1021.5mb 57f 58f
9:20pm  -   -   -  7 9 mph 1021.4mb 57f 58f
9:10pm  -   -   -  4 9 mph 1021.4mb 57f 58f
9:00pm  -   -   -  4 7 mph 1021.4mb 57f 58f
8:50pm 8.5ft 15s 12s 4 9 mph 1021.4mb 57f 58f
8:40pm  -   -   -  4 9 mph 1021.3mb 57f 58f
8:30pm  -   -   -  7 9 mph 1021.1mb 57f 58f
8:20pm  -   -   -  4 9 mph 1021.3mb 57f 58f
8:10pm  -   -   -  4 7 mph 1021.3mb 57f 59f
8:00pm  -   -   -  4 9 mph 1021.1mb 57f 59f
7:50pm 9ft 15s 12s 4 7 mph 1021.3mb 57f 60f
7:40pm  -   -   -  4 7 mph 1021.3mb 57f 61f
7:30pm  -   -   -  4 7 mph 1021.4mb 57f 61f
7:20pm  -   -   -  4 7 mph 1021.3mb 57f 61f
7:10pm  -   -   -  2 4 mph 1021.3mb 57f 61f
7:00pm  -   -   -  4 7 mph 1021.1mb 57f 61f
6:50pm 9.5ft 16s 12s 4 9 mph 1021.3mb 57f 60f
6:40pm  -   -   -  2 7 mph 1021.4mb 57f 59f
6:30pm  -   -   -  2 7 mph 1021.3mb 57f 60f
6:20pm  -   -   -  4
mph
1021.3mb 58f 60f
6:10pm  -   -   -  2 7 mph 1021.3mb 58f 61f
6:00pm  -   -   -  2 4 mph 1021.1mb 58f 61f
5:50pm 8ft 16s 12s 2 4 mph 1021mb 56f 61f
5:40pm  -   -   -  2
mph
1021mb 56f 61f
5:30pm  -   -   -  2
mph
1021mb 58f 61f
5:20pm  -   -   -  2 4 mph 1021mb 57f 60f
5:10pm  -   -   -  2 4 mph 1021mb 57f 60f
5:00pm  -   -   -  2 4 mph 1021mb 57f 60f
4:50pm 9ft 16s 13s 4 7 mph 1020.9mb 57f 60f
4:40pm  -   -   -  4 7 mph 1020.9mb 57f 60f
4:30pm  -   -   -  4 7 mph 1020.9mb 57f 60f
4:20pm  -   -   -  4 7 mph 1020.9mb 57f 60f
4:10pm  -   -   -  4 7 mph 1020.9mb 58f 60f
4:00pm  -   -   -  4 7 mph 1020.9mb 58f 61f
3:50pm 6ft 16s 11s 4 7 mph 1021mb 57f 61f
3:40pm  -   -   -  2 7 mph 1020.9mb 57f 61f
3:30pm  -   -   -  4
mph
1020.9mb 57f 61f
3:20pm  -   -   -  4 7 mph 1020.9mb 57f 61f
3:10pm  -   -   -  2 4 mph 1021mb 58f 62f
3:00pm  -   -   -  2 4 mph 1021mb 57f 62f
2:50pm 7ft 16s 11s 2 4 mph 1021mb 57f 61f
2:40pm  -   -   -  2 7 mph 1021mb 57f 62f
2:30pm  -   -   -  4 7 mph 1020.9mb 56f 62f
2:20pm  -   -   -  2 4 mph 1020.9mb 57f 62f
2:10pm  -   -   -  4 7 mph 1020.9mb 57f 62f
2:00pm  -   -   -  4 7 mph 1020.9mb 56f 62f
1:50pm 8ft 16s 12s 4 7 mph 1020.9mb 56f 62f
1:40pm  -   -   -  4 7 mph 1021mb 56f 63f
1:30pm  -   -   -  4 7 mph 1020.9mb 56f 62f
1:20pm  -   -   -  4 7 mph 1021mb 56f 62f
1:10pm  -   -   -  2 4 mph 1021.1mb 56f 62f
1:00pm  -   -   -  2
mph
1021.3mb 56f 61f
12:50pm 7ft 17s 11s 2 4 mph 1021.4mb 56f 60f
12:40pm  -   -   -  4
mph
1021.5mb 56f 60f
12:30pm  -   -   -  4
mph
1021.5mb 57f 60f
12:20pm  -   -   -  4 7 mph 1021.6mb 56f 60f
12:10pm  -   -   -  4 7 mph 1021.9mb 56f 60f
12:00pm  -   -   -  4
mph
1022mb 56f 60f
11:50am 6.5ft 17s 10s 2 4 mph 1022mb 56f 60f
11:40am  -   -   -  2 4 mph 1022.1mb 56f 60f
11:30am  -   -   -  4
mph
1022.3mb 56f 59f
11:20am  -   -   -  2 4 mph 1022.3mb 56f 59f
11:10am  -   -   -  2 4 mph 1022.5mb 56f 58f
11:00am  -   -   -  2 4 mph 1022.5mb 56f 58f
10:50am 7ft 17s 11s 2 4 mph 1022.5mb 56f 58f
10:40am  -   -   -  2 4 mph 1022.5mb 56f 58f
10:30am  -   -   -  4 7 mph 1022.5mb 56f 57f
10:20am  -   -   -  4 7 mph 1022.4mb 56f 57f
10:10am  -   -   -  4 7 mph 1022.5mb 56f 57f
10:00am  -   -   -  4 7 mph 1022.5mb 56f 57f
9:50am 7ft 17s 11s 4 7 mph 1022.6mb 56f 57f
9:40am  -   -   -  4 7 mph 1022.6mb 56f 57f
9:30am  -   -   -  4 7 mph 1022.6mb 56f 57f
9:20am  -   -   -  4 7 mph 1022.6mb 56f 56f
9:10am  -   -   -  4 7 mph 1022.6mb 55f 57f
9:00am  -   -   -  4 7 mph 1022.5mb 55f 57f
8:50am 6.5ft 17s 10s 4 7 mph 1022.5mb 55f 56f
8:40am  -   -   -  4 7 mph 1022.4mb 55f 56f
8:30am  -   -   -  4 7 mph 1022.4mb 55f 56f
8:20am  -   -   -  4 7 mph 1022.4mb 55f 56f
8:10am  -   -   -  4 7 mph 1022.4mb 55f 56f
8:00am  -   -   -  4 7 mph 1022.4mb 55f 56f
7:50am 6.5ft 17s 10s 4 9 mph 1022.4mb 55f 56f
7:40am  -   -   -  4 9 mph 1022.3mb 55f 56f
7:30am  -   -   -  2 4 mph 1022.3mb 55f 56f
7:20am  -   -   -  2 4 mph 1022.5mb 55f 56f
7:10am  -   -   -   -  2 mph 1022.4mb 55f 56f
7:00am  -   -   -  2 4 mph 1022.3mb 55f 56f
6:50am 7ft 17s 11s 2 4 mph 1022.3mb 55f 56f
6:40am  -   -   -  2 7 mph 1022.3mb 55f 56f
6:30am  -   -   -  4 7 mph 1022.1mb 55f 57f
6:20am  -   -   -  4 7 mph 1022mb 55f 57f
6:10am  -   -   -  4 9 mph 1022mb 55f 57f
6:00am  -   -   -  7
mph
1022mb 55f 57f
5:50am 5.5ft 19s 9s 4 7 mph 1022mb 55f 57f
5:40am  -   -   -  2 4 mph 1022mb 55f 57f
5:30am  -   -   -   -  4 mph 1022.1mb 55f 58f
5:20am  -   -   -  2 7 mph 1022mb 55f 58f
5:10am  -   -   -  4 9 mph 1022mb 55f 58f
5:00am  -   -   -  7 9 mph 1021.9mb 55f 57f
4:50am 4.5ft 19s 8s 4 9 mph 1022mb 55f 56f
4:40am 4.5ft  -  8s  -  4 mph 1022.1mb 55f 56f
4:30am  -   -   -  4 7 mph 1022mb 55f 56f
4:20am  -   -   -  4 9 mph 1022.1mb 55f 56f
4:10am  -   -   -  4 7 mph 1022mb 55f 56f
4:00am  -   -   -  4 7 mph 1022mb 55f 56f
3:50am 4.5ft 19s 8s 4 7 mph 1022.4mb 55f 56f
3:40am  -   -   -  4 9 mph 1022.3mb 55f 56f
3:30am  -   -   -  2 7 mph 1022.3mb 55f 56f
3:20am  -   -   -  4 9 mph 1022.4mb 55f 56f
3:10am  -   -   -  2 4 mph 1022.5mb 55f 56f
3:00am  -   -   -  2 4 mph 1022.5mb 55f 56f
2:50am 4.5ft 11s 7s 4
mph
1022.5mb 55f 56f
2:40am  -   -   -  4 7 mph 1022.5mb 55f 56f
2:30am  -   -   -  4 7 mph 1022.5mb 55f 56f
2:20am  -   -   -  4 7 mph 1022.5mb 55f 56f
2:10am  -   -   -  2 4 mph 1022.5mb 55f 56f
2:00am  -   -   -  4 7 mph 1022.5mb 55f 56f
1:50am 4.5ft 12s 7s 2 7 mph 1022.5mb 55f 56f
1:40am  -   -   -  2 4 mph 1022.6mb 55f 56f
1:30am  -   -   -  2
mph
1022.6mb 55f 56f
1:20am  -   -   -  2 4 mph 1022.5mb 55f 56f
1:10am  -   -   -  2 4 mph 1022.6mb 55f 56f
1:00am  -   -   -  4 7 mph 1022.6mb 55f 56f
12:50am  -   -   -   -  mph 1022.5mb 55f -
12:40am  -   -   -  4 7 mph 1022.6mb - 56f
12:30am  -   -   -  4 9 mph 1022.6mb 55f 56f
12:20am  -   -   -  9 11 mph 1022.5mb 55f 57f
12:10am  -   -   -  11 13 mph 1022.5mb 55f 56f
12:00am  -   -   -  11 13 mph 1022.5mb 55f 56f
Sun 02/07 11:50pm 5ft 13s 7s 11 13 mph 1022.5mb 55f 56f
11:40pm  -   -   -  9 13 mph 1022.5mb 55f 56f
11:30pm  -   -   -  11 13 mph 1022.3mb 55f 56f
11:20pm  -   -   -  9 11 mph 1022.4mb 55f 56f
11:10pm  -   -   -  7 9 mph 1022.5mb 55f 56f
11:00pm  -   -   -  7 9 mph 1022.5mb 55f 56f
10:50pm 4.5ft 12s 7s 7 9 mph 1022.4mb 55f 56f
10:40pm  -   -   -  4 7 mph 1022.1mb 55f 56f
10:30pm  -   -   -  4 7 mph 1022.3mb 55f 56f
10:20pm  -   -   -  4 7 mph 1022.1mb 55f 56f
10:10pm  -   -   -  7 9 mph 1022.1mb 55f 56f
10:00pm  -   -   -  7 9 mph 1022.1mb 55f 56f
9:50pm 4.5ft 14s 7s 7 9 mph 1022mb 55f 56f
9:40pm  -   -   -  2 7 mph 1022mb 55f 56f
9:30pm  -   -   -  2 4 mph 1022.1mb 55f 56f
9:20pm  -   -   -  2 4 mph 1022.3mb 56f 56f
9:10pm  -   -   -  2 4 mph 1022.3mb 56f 56f
9:00pm  -   -   -  2 4 mph 1022.4mb 56f 56f
8:50pm 4.5ft 12s 7s 2 4 mph 1022.4mb 56f 56f
8:40pm  -   -   -   -  2 mph 1022.3mb 56f 56f
8:30pm  -   -   -  2
mph
1022.5mb 56f 56f
8:20pm  -   -   -  2 7 mph 1022.5mb 56f 56f
8:10pm  -   -   -  7
mph
1022.4mb 56f 56f
8:00pm  -   -   -  4 7 mph 1022.4mb 56f 56f
7:50pm 5ft 11s 7s 4 7 mph 1022.5mb 56f 56f
7:40pm  -   -   -  4 7 mph 1022.5mb 56f 57f
7:30pm  -   -   -  7 9 mph 1022.4mb 56f 57f
7:20pm  -   -   -  9 13 mph 1022.5mb 56f 57f
7:10pm  -   -   -  11 13 mph 1022.4mb 56f 57f
7:00pm  -   -   -  9 11 mph 1022.4mb 56f 57f
6:50pm 6ft 14s 8s 9 11 mph 1022.4mb 56f 57f
6:40pm  -   -   -  9 11 mph 1022.5mb 56f 57f
6:30pm  -   -   -  9 11 mph 1022.5mb 56f 57f
6:20pm  -   -   -  11 13 mph 1022.4mb 56f 57f
6:10pm  -   -   -  11 13 mph 1022.3mb 56f 57f
6:00pm  -   -   -  11 13 mph 1022.3mb 56f 57f
5:50pm 6ft 12s 7s 11 13 mph 1022.3mb 56f 57f
5:40pm  -   -   -  11 13 mph 1022.3mb 56f 57f
5:30pm  -   -   -  11 16 mph 1022.4mb 56f 57f
5:20pm  -   -   -  13 16 mph 1022.4mb 56f 57f
5:10pm  -   -   -  13 16 mph 1022.3mb 56f 57f
5:00pm  -   -   -  11 16 mph 1022.4mb 56f 57f
4:50pm 6.5ft 14s 8s 9 11 mph 1022.4mb 56f 57f
4:40pm  -   -   -  9 11 mph 1022.4mb 56f 57f
4:30pm  -   -   -  9 13 mph 1022.5mb 56f 57f
4:20pm  -   -   -  11 16 mph 1022.5mb 56f 57f
4:10pm  -   -   -  13 16 mph 1022.4mb 56f 57f
4:00pm  -   -   -  9 16 mph 1022.4mb 56f 57f
3:50pm 6ft 13s 8s 9 11 mph 1022.5mb 56f 57f
3:40pm  -   -   -  7 9 mph 1022.5mb 56f 57f
3:30pm  -   -   -  4 7 mph 1022.6mb 56f 57f
3:20pm  -   -   -  4 9 mph 1022.5mb 56f 57f
3:10pm  -   -   -  7 9 mph 1022.4mb 56f 57f
3:00pm  -   -   -  4 9 mph 1022.5mb 56f 57f
2:50pm 6ft 11s 8s 4 9 mph 1022.6mb 56f 57f
2:40pm  -   -   -  7 9 mph 1022.5mb 56f 56f
2:30pm  -   -   -  4 7 mph 1022.8mb 56f 56f
2:20pm  -   -   -  9 11 mph 1022.8mb 56f 56f
2:10pm  -   -   -  9 11 mph 1022.6mb 56f 56f
2:00pm  -   -   -  9 11 mph 1023mb 56f 56f
1:50pm 7ft 12s 8s 9 11 mph 1023mb 56f 56f
1:40pm  -   -   -  9 11 mph 1023.1mb 56f 56f
1:30pm  -   -   -  9 11 mph 1023.3mb 56f 56f
1:20pm  -   -   -  7 9 mph 1023.5mb 56f 56f
1:10pm  -   -   -  7 9 mph 1023.6mb 56f 56f
1:00pm  -   -   -  7 9 mph 1023.8mb 56f 56f
12:50pm 6ft 12s 8s 7 9 mph 1024mb 56f 56f
12:40pm  -   -   -  7 9 mph 1024.3mb 56f 56f
12:30pm  -   -   -  7 9 mph 1024.5mb 56f 56f
12:20pm  -   -   -  7 9 mph 1024.7mb 55f 56f
12:10pm  -   -   -  7 9 mph 1025mb 55f 55f
12:00pm  -   -   -  9
mph
1025mb 55f 55f
11:50am 6ft 12s 8s 9 11 mph 1025mb 55f 55f
11:40am  -   -   -  7 9 mph 1025.3mb 55f 55f
11:30am  -   -   -  7 9 mph 1025.3mb 55f 55f
11:20am  -   -   -  7 9 mph 1025.5mb 55f 55f
11:10am  -   -   -  7 9 mph 1025.5mb 55f 55f
11:00am  -   -   -  4 9 mph 1025.8mb 55f 55f
10:50am 6.5ft 12s 8s 7 9 mph 1025.8mb 55f 55f
10:40am  -   -   -  7 9 mph 1025.8mb 55f 55f
10:30am  -   -   -  7 9 mph 1025.8mb 55f 54f
10:20am  -   -   -  7 9 mph 1025.8mb 55f 54f
10:10am  -   -   -  7 9 mph 1025.8mb 55f 54f
10:00am  -   -   -  7 9 mph 1025.8mb 55f 54f
9:50am 6ft 12s 7s 7 9 mph 1026mb 55f 54f
9:40am  -   -   -  7 9 mph 1026mb 55f 54f
9:30am  -   -   -  9 11 mph 1025.8mb 55f 54f
9:20am  -   -   -  9 11 mph 1026mb 55f 54f
9:10am  -   -   -  9 11 mph 1026mb - 54f
9:00am  -   -   -  9 11 mph 1026.2mb 55f 54f
8:50am 5.5ft 11s 8s 9 11 mph 1026.2mb 55f 54f
8:40am  -   -   -  11 13 mph 1026.2mb 55f 54f
8:30am  -   -   -  11 13 mph 1026.2mb 55f 54f
8:20am  -   -   -  11 13 mph 1026.3mb 55f 54f
8:10am  -   -   -  11 16 mph 1026.3mb 55f 54f
8:00am  -   -   -  11 16 mph 1026.5mb 55f 54f
7:50am 6ft 12s 9s 9 11 mph 1026.5mb 55f 54f
7:40am  -   -   -  9 11 mph 1026.5mb 55f 54f
7:30am  -   -   -  9 11 mph 1026.5mb 55f 54f
7:20am  -   -   -  9 11 mph 1026.5mb 55f 53f
7:10am  -   -   -  9 11 mph 1026.5mb 55f 53f
7:00am  -   -   -  9 11 mph 1026.5mb 55f 53f
6:50am 6ft 14s 9s 11 13 mph 1026.7mb 55f 53f
6:40am  -   -   -  11 13 mph 1026.5mb 55f 53f
6:30am  -   -   -  11 13 mph 1026.5mb 55f 53f
6:20am  -   -   -  11 13 mph 1026.5mb 55f 53f
6:10am  -   -   -  11 16 mph 1026.5mb 55f 53f
6:00am  -   -   -  13 16 mph 1026.8mb - 53f
5:50am 6ft 13s 8s 11 13 mph 1026.5mb 55f 53f
5:40am  -   -   -  13 16 mph 1026.5mb 55f 53f
5:30am  -   -   -  13 16 mph 1026.5mb 55f 53f
5:20am  -   -   -  13 16 mph 1026.7mb 55f 53f
5:10am  -   -   -  13 16 mph 1026.7mb 55f 53f
5:00am  -   -   -  13 16 mph 1026.7mb 55f 53f
4:50am 6ft 13s 8s 13 16 mph 1026.8mb 55f 53f
4:40am  -   -   -  13 16 mph 1026.8mb 55f 53f
4:30am  -   -   -  13 16 mph 1026.8mb 55f 53f
4:20am  -   -   -  13 16 mph 1026.8mb 55f 53f
4:10am  -   -   -  13 16 mph 1026.8mb 55f 53f
4:00am  -   -   -  11 16 mph 1026.8mb 55f 53f
3:50am 6ft 11s 8s 11 16 mph 1026.8mb 55f 53f
3:40am  -   -   -  11 16 mph 1026.8mb 55f 53f
3:30am  -   -   -  11 13 mph 1027mb 55f 53f
3:20am  -   -   -  11 16 mph 1027.2mb 55f 54f
3:10am  -   -   -  13 16 mph 1027.2mb 55f 53f
3:00am  -   -   -  11 16 mph 1027.3mb 55f 53f
2:50am 7ft 13s 9s 11 13 mph 1027.3mb 55f 54f
2:40am  -   -   -  11 13 mph 1027.3mb 55f 54f
2:30am  -   -   -  11 16 mph 1027.3mb 55f 54f
2:20am  -   -   -  13 16 mph 1027.5mb 55f 54f
2:10am  -   -   -  11 16 mph 1027.5mb 55f 54f
2:00am  -   -   -  11 16 mph 1027.5mb 55f 54f
1:50am 7ft 13s 9s 11 16 mph 1027.5mb 55f 54f
1:40am  -   -   -  11 13 mph 1027.7mb 55f 54f
1:30am  -   -   -  11 16 mph 1027.8mb 55f 54f
1:20am  -   -   -  11 16 mph 1027.8mb 55f 54f
1:10am  -   -   -  13 16 mph 1028mb 55f 55f
1:00am  -   -   -  13 16 mph 1028mb 55f 55f
12:50am 8ft 13s 10s 13 18 mph 1028.2mb 55f 55f
12:40am  -   -   -  11 16 mph 1028.2mb 55f 55f
12:30am  -   -   -  13 18 mph 1028.3mb 55f 55f
12:20am  -   -   -  11 13 mph 1028.3mb 55f 55f
12:10am  -   -   -  9 11 mph 1028.5mb 55f 55f
12:00am  -   -   -  9 11 mph 1028.5mb 55f 55f
Sat 02/06 11:50pm 7.5ft 13s 9s 9 11 mph 1028.5mb 55f 55f
11:40pm  -   -   -  7 9 mph 1028.5mb 55f 55f
11:30pm  -   -   -  7 9 mph 1028.7mb 55f 55f
11:20pm  -   -   -  7 9 mph 1028.7mb 55f 55f
11:10pm  -   -   -  7 9 mph 1028.8mb 55f 55f
11:00pm  -   -   -  7 9 mph 1028.8mb 55f 55f
10:50pm 9ft 13s 10s 7 9 mph 1029mb 55f 55f
10:40pm  -   -   -  7 11 mph 1029mb 55f 55f
10:30pm  -   -   -  7 9 mph 1029mb 55f 55f
10:20pm  -   -   -  7 9 mph 1029mb 55f 55f
10:10pm  -   -   -  7 9 mph 1029mb 55f 55f
10:00pm  -   -   -  7 9 mph 1029.2mb 55f 55f
9:50pm 8ft 12s 9s 7 9 mph 1029.2mb 55f 55f
9:40pm  -   -   -  7 9 mph 1029mb 55f 55f
9:30pm  -   -   -  7 9 mph 1029.2mb 55f 55f